Time;durP1;ratioP1;P1;durP2;ratioP2;P2;SDS_P1;SDS_P2;PMS_P1;PMS_P2;Temp;Humidity;BMP_temperature;BMP_pressure;BME280_temperature;BME280_humidity;BME280_pressure;Samples;Min_cycle;Max_cycle;Signal;HPM_P1;HPM_P2
2022/05/07 00:01:53;;;;;;;;;;;;;;;20.50;48.35;101764.44;5108417;27;4164;-60
2022/05/07 00:04:20;;;;;;;;;;;;;;;20.49;48.51;101757.94;5115950;27;4149;-60
2022/05/07 00:06:46;;;;;;;;;;;;;;;20.48;48.48;101753.56;5118168;27;4207;-60
2022/05/07 00:09:12;;;;;;;;;;;;;;;20.49;48.50;101755.06;5118364;27;5271;-59
2022/05/07 00:11:39;;;;;;;;;;;;;;;20.48;48.45;101753.56;5116488;27;5447;-60
2022/05/07 00:14:05;;;;;;;;;;;;;;;20.48;48.46;101750.69;5104285;27;5475;-60
2022/05/07 00:19:17;;;;;;;;;;;;;;;20.47;48.51;101749.16;5119107;27;4164;-60
2022/05/07 00:21:44;;;;;;;;;;;;;;;20.48;48.40;101750.69;5119025;27;4222;-60
2022/05/07 00:24:10;;;;;;;;;;;;;;;20.47;48.48;101745.56;5118325;27;4263;-60
2022/05/07 00:26:36;;;;;;;;;;;;;;;20.47;48.45;101749.16;5117627;27;4214;-60
2022/05/07 00:29:03;;;;;;;;;;;;;;;20.46;48.45;101741.94;5119021;27;4245;-60
2022/05/07 00:31:29;;;;;;;;;;;;;;;20.46;48.51;101738.31;5117321;27;4071;-60
2022/05/07 00:33:55;;;;;;;;;;;;;;;20.46;48.41;101746.94;5111819;27;4344;-60
2022/05/07 00:36:28;;;;;;;;;;;;;;;20.45;48.51;101743.28;5112836;27;5268;-60
2022/05/07 00:38:55;;;;;;;;;;;;;;;20.45;48.49;101743.28;5115102;27;4187;-60
2022/05/07 00:41:22;;;;;;;;;;;;;;;20.45;48.50;101740.41;5116665;27;5196;-60
2022/05/07 00:43:48;;;;;;;;;;;;;;;20.45;48.51;101746.16;5118793;27;5267;-60
2022/05/07 00:46:14;;;;;;;;;;;;;;;20.44;48.50;101741.81;5115219;27;4160;-60
2022/05/07 00:48:41;;;;;;;;;;;;;;;20.44;48.43;101744.69;5107073;27;5253;-60
2022/05/07 00:53:52;;;;;;;;;;;;;;;20.44;48.49;101741.81;5113994;27;4244;-60
2022/05/07 00:56:19;;;;;;;;;;;;;;;20.44;48.48;101741.81;5100165;27;4196;-60
2022/05/07 00:58:46;;;;;;;;;;;;;;;20.44;48.43;101730.28;5116966;27;5274;-60
2022/05/07 01:01:14;;;;;;;;;;;;;;;20.43;48.45;101737.44;5098365;27;5232;-60
2022/05/07 01:03:41;;;;;;;;;;;;;;;20.43;48.42;101737.44;5117332;27;4119;-60
2022/05/07 01:06:09;;;;;;;;;;;;;;;20.43;48.46;101740.31;5104276;27;4142;-61
2022/05/07 01:08:36;;;;;;;;;;;;;;;20.42;48.52;101735.94;5098600;27;4217;-60
2022/05/07 01:11:02;;;;;;;;;;;;;;;20.43;48.44;101733.78;5119048;27;5530;-60
2022/05/07 01:13:30;;;;;;;;;;;;;;;20.43;48.54;101731.69;5091630;27;4268;-60
2022/05/07 01:15:57;;;;;;;;;;;;;;;20.42;48.57;101733.03;5106017;27;4398;-60
2022/05/07 01:18:28;;;;;;;;;;;;;;;20.42;48.46;101733.03;5081697;27;4135;-60
2022/05/07 01:20:57;;;;;;;;;;;;;;;20.41;48.55;101737.31;5092550;27;3992;-60
2022/05/07 01:23:24;;;;;;;;;;;;;;;20.41;48.51;101734.44;5093807;27;4201;-60
2022/05/07 01:25:51;;;;;;;;;;;;;;;20.41;48.46;101728.69;5100851;27;4511;-60
2022/05/07 01:28:18;;;;;;;;;;;;;;;20.41;48.49;101727.91;5088884;27;4192;-60
2022/05/07 01:30:44;;;;;;;;;;;;;;;20.41;48.40;101722.16;5111378;27;4238;-60
2022/05/07 01:33:11;;;;;;;;;;;;;;;20.40;48.41;101727.16;5102240;27;4289;-60
2022/05/07 01:35:38;;;;;;;;;;;;;;;20.40;48.44;101727.16;5098768;28;5273;-60
2022/05/07 01:38:05;;;;;;;;;;;;;;;20.38;48.48;101718.41;5091179;28;5269;-60
2022/05/07 01:40:34;;;;;;;;;;;;;;;20.40;48.54;101726.44;5095484;27;4245;-60
2022/05/07 01:43:01;;;;;;;;;;;;;;;20.39;48.54;101725.69;5093196;27;4269;-59
2022/05/07 01:45:28;;;;;;;;;;;;;;;20.39;48.54;101717.06;5095365;27;5391;-60
2022/05/07 01:48:11;;;;;;;;;;;;;;;20.36;48.44;101721.16;5095176;28;4082;-60
2022/05/07 01:50:42;;;;;;;;;;;;;;;20.39;48.42;101722.06;5091667;28;4203;-60
2022/05/07 01:53:14;;;;;;;;;;;;;;;20.38;48.54;101724.16;5094921;28;5102;-60
2022/05/07 01:55:45;;;;;;;;;;;;;;;20.39;48.39;101713.44;5092339;28;5159;-60
2022/05/07 01:58:13;;;;;;;;;;;;;;;20.37;48.53;101719.81;5095584;27;5410;-60
2022/05/07 02:00:40;;;;;;;;;;;;;;;20.38;48.48;101724.16;5084676;27;4032;-60
2022/05/07 02:03:07;;;;;;;;;;;;;;;20.37;48.56;101722.69;5081744;27;4227;-60
2022/05/07 02:05:33;;;;;;;;;;;;;;;20.37;48.53;101716.94;5084845;28;4358;-60
2022/05/07 02:08:00;;;;;;;;;;;;;;;20.36;48.54;101718.28;5086515;28;4028;-58
2022/05/07 02:10:27;;;;;;;;;;;;;;;20.37;48.52;101716.94;5089722;28;4189;-58
2022/05/07 02:12:53;;;;;;;;;;;;;;;20.38;48.41;101711.91;5095522;28;4213;-59
2022/05/07 02:15:22;;;;;;;;;;;;;;;20.36;48.57;101709.66;5098332;28;4184;-59
2022/05/07 02:17:52;;;;;;;;;;;;;;;20.35;48.56;101713.94;5109951;27;4172;-59
2022/05/07 02:20:18;;;;;;;;;;;;;;;20.35;48.54;101708.19;5094785;27;4353;-59
2022/05/07 02:22:46;;;;;;;;;;;;;;;20.36;48.42;101709.66;5093751;28;5295;-59
2022/05/07 02:25:12;;;;;;;;;;;;;;;20.35;48.47;101702.41;5095722;28;4281;-58
2022/05/07 02:27:41;;;;;;;;;;;;;;;20.36;48.39;101691.66;5095717;28;4259;-59
2022/05/07 02:30:08;;;;;;;;;;;;;;;20.38;48.43;101689.66;5093380;28;4010;-59
2022/05/07 02:32:34;;;;;;;;;;;;;;;20.38;48.45;101686.78;5096315;27;4145;-59
2022/05/07 02:35:01;;;;;;;;;;;;;;;20.36;48.48;101692.41;5118040;27;4305;-59
2022/05/07 02:37:36;;;;;;;;;;;;;;;20.36;48.50;101698.16;5115178;27;4114;-58
2022/05/07 02:40:02;;;;;;;;;;;;;;;20.37;48.55;101705.41;5096417;28;4112;-58
2022/05/07 02:42:39;;;;;;;;;;;;;;;20.38;48.45;101709.03;5099071;27;4059;-59
2022/05/07 02:45:09;;;;;;;;;;;;;;;20.38;48.35;101704.03;5113900;27;4401;-59
2022/05/07 02:47:36;;;;;;;;;;;;;;;20.39;48.14;101702.66;5092221;27;4120;-59
2022/05/07 02:50:03;;;;;;;;;;;;;;;20.42;48.29;101706.41;5115059;27;3984;-59
2022/05/07 02:52:33;;;;;;;;;;;;;;;20.41;48.22;101699.91;5094214;28;5542;-59
2022/05/07 02:55:01;;;;;;;;;;;;;;;20.41;48.25;101708.56;5102426;27;4313;-59
2022/05/07 02:57:28;;;;;;;;;;;;;;;20.42;48.33;101712.91;5109762;27;4202;-59
2022/05/07 02:59:54;;;;;;;;;;;;;;;20.43;48.35;101713.66;5115906;27;4303;-59
2022/05/07 03:02:21;;;;;;;;;;;;;;;20.42;48.18;101712.16;5097573;28;4220;-59
2022/05/07 03:04:48;;;;;;;;;;;;;;;20.42;48.28;101707.16;5115857;28;4195;-58
2022/05/07 03:07:14;;;;;;;;;;;;;;;20.42;48.27;101709.28;5114628;27;4289;-59
2022/05/07 03:09:45;;;;;;;;;;;;;;;20.42;48.22;101707.16;5087493;28;4217;-59
2022/05/07 03:12:17;;;;;;;;;;;;;;;20.42;48.20;101717.91;5095818;28;4140;-59
2022/05/07 03:14:45;;;;;;;;;;;;;;;20.42;48.12;101717.91;5098219;27;5295;-59
2022/05/07 03:17:12;;;;;;;;;;;;;;;20.39;48.16;101717.06;5086134;27;4054;-59
2022/05/07 03:19:38;;;;;;;;;;;;;;;20.41;48.34;101717.19;5108033;27;4220;-59
2022/05/07 03:22:05;;;;;;;;;;;;;;;20.41;48.28;101720.06;5102850;28;4205;-60
2022/05/07 03:24:33;;;;;;;;;;;;;;;20.40;48.33;101721.41;5093185;28;4144;-59
2022/05/07 03:27:02;;;;;;;;;;;;;;;20.40;48.36;101724.28;5104902;27;4035;-59
2022/05/07 03:29:29;;;;;;;;;;;;;;;20.40;48.34;101721.41;5115497;27;4150;-59
2022/05/07 03:32:07;;;;;;;;;;;;;;;20.36;48.36;101715.41;5093206;28;4354;-59
2022/05/07 03:34:40;;;;;;;;;;;;;;;20.39;48.34;101725.69;5097156;28;4092;-59
2022/05/07 03:37:07;;;;;;;;;;;;;;;20.40;48.38;101723.56;5109071;27;4244;-59
2022/05/07 03:39:33;;;;;;;;;;;;;;;20.39;48.39;101724.94;5117322;27;4050;-59
2022/05/07 03:41:59;;;;;;;;;;;;;;;20.38;48.38;101724.16;5119179;27;4229;-59
2022/05/07 03:44:26;;;;;;;;;;;;;;;20.38;48.29;101729.94;5096469;27;4177;-59
2022/05/07 03:46:54;;;;;;;;;;;;;;;20.37;48.32;101722.69;5117222;27;5386;-59
2022/05/07 03:49:21;;;;;;;;;;;;;;;20.36;48.34;101721.16;5105357;27;4229;-59
2022/05/07 03:54:35;;;;;;;;;;;;;;;20.36;48.44;101712.53;5098923;27;5247;-59
2022/05/07 03:57:02;;;;;;;;;;;;;;;20.36;48.42;101715.41;5118796;27;4221;-59
2022/05/07 03:59:32;;;;;;;;;;;;;;;20.35;48.49;101716.06;5097192;27;4192;-59
2022/05/07 04:01:59;;;;;;;;;;;;;;;20.35;48.50;101710.31;5102264;27;4230;-59
2022/05/07 04:04:37;;;;;;;;;;;;;;;20.34;48.48;101706.69;5117514;27;4110;-59
2022/05/07 04:07:09;;;;;;;;;;;;;;;20.34;48.52;101712.44;5102440;27;4037;-59
2022/05/07 04:09:42;;;;;;;;;;;;;;;20.34;48.59;101712.44;5100782;27;4043;-59
2022/05/07 04:12:14;;;;;;;;;;;;;;;20.33;48.42;101719.56;5115923;27;5306;-59
2022/05/07 04:14:42;;;;;;;;;;;;;;;20.33;48.63;101719.56;5114390;27;4107;-59
2022/05/07 04:17:08;;;;;;;;;;;;;;;20.32;48.59;101723.81;5116816;27;4157;-59
2022/05/07 04:19:34;;;;;;;;;;;;;;;20.33;48.60;101722.44;5115060;27;4129;-59
2022/05/07 04:22:01;;;;;;;;;;;;;;;20.33;48.63;101721.69;5107828;27;4204;-59
2022/05/07 04:24:37;;;;;;;;;;;;;;;20.32;48.48;101720.94;5106975;27;4171;-59
2022/05/07 04:27:04;;;;;;;;;;;;;;;20.32;48.74;101715.19;5099287;27;4230;-61
2022/05/07 04:29:31;;;;;;;;;;;;;;;20.30;48.56;101718.69;5100191;27;4086;-59
2022/05/07 04:32:05;;;;;;;;;;;;;;;20.31;48.59;101719.44;5106852;27;5475;-60
2022/05/07 04:34:32;;;;;;;;;;;;;;;20.30;48.57;101717.94;5097629;27;4387;-59
2022/05/07 04:37:00;;;;;;;;;;;;;;;20.30;48.53;101717.94;5117721;27;4206;-59
2022/05/07 04:39:28;;;;;;;;;;;;;;;20.29;48.61;101710.69;5100086;27;4147;-59
2022/05/07 04:41:58;;;;;;;;;;;;;;;20.29;48.61;101707.81;5092905;27;4085;-60
2022/05/07 04:44:33;;;;;;;;;;;;;;;20.29;48.52;101711.44;5102723;27;4252;-59
2022/05/07 04:47:00;;;;;;;;;;;;;;;20.29;48.45;101710.69;5095858;27;4063;-59
2022/05/07 04:49:27;;;;;;;;;;;;;;;20.28;48.30;101715.69;5099876;27;4262;-60
2022/05/07 04:51:53;;;;;;;;;;;;;;;20.28;48.63;101720.69;5118739;27;4157;-59
2022/05/07 04:54:24;;;;;;;;;;;;;;;20.26;48.63;101718.44;5106948;27;4245;-59
2022/05/07 04:56:50;;;;;;;;;;;;;;;20.26;48.87;101724.19;5100025;27;4212;-59
2022/05/07 04:59:17;;;;;;;;;;;;;;;20.26;48.48;101723.44;5094167;27;4397;-59
2022/05/07 05:01:49;;;;;;;;;;;;;;;20.26;48.44;101723.44;5109345;27;4199;-59
2022/05/07 05:04:19;;;;;;;;;;;;;;;20.26;48.55;101729.19;5101481;27;4185;-59
2022/05/07 05:06:47;;;;;;;;;;;;;;;20.26;48.52;101714.81;5119417;27;5323;-59
2022/05/07 05:09:17;;;;;;;;;;;;;;;20.27;48.68;101719.19;5114611;27;4198;-59
2022/05/07 05:11:50;;;;;;;;;;;;;;;20.26;48.59;101717.69;5093325;27;4206;-59
2022/05/07 05:17:03;;;;;;;;;;;;;;;20.25;48.55;101727.72;5100342;27;4253;-60
2022/05/07 05:19:30;;;;;;;;;;;;;;;20.26;48.59;101726.31;5111519;27;6263;-59
2022/05/07 05:22:02;;;;;;;;;;;;;;;20.25;48.49;101727.72;5087190;27;5482;-59
2022/05/07 05:24:31;;;;;;;;;;;;;;;20.24;48.62;101726.94;5091645;27;4172;-59
2022/05/07 05:26:58;;;;;;;;;;;;;;;20.24;48.62;101720.44;5093404;27;4188;-59
2022/05/07 05:29:29;;;;;;;;;;;;;;;20.24;48.59;101723.31;5082372;27;5021;-59
2022/05/07 05:31:56;;;;;;;;;;;;;;;20.24;48.52;101726.19;5104542;27;4254;-59
2022/05/07 05:34:27;;;;;;;;;;;;;;;20.25;48.57;101730.59;5098256;27;4001;-59
2022/05/07 05:36:55;;;;;;;;;;;;;;;20.23;48.57;101730.47;5098858;27;5350;-59
2022/05/07 05:39:24;;;;;;;;;;;;;;;20.25;48.55;101739.22;5102237;27;4123;-59
2022/05/07 05:41:53;;;;;;;;;;;;;;;20.24;48.56;101737.69;5099358;27;5083;-59
2022/05/07 05:44:19;;;;;;;;;;;;;;;20.24;48.57;101731.94;5099186;27;4161;-59
2022/05/07 05:46:46;;;;;;;;;;;;;;;20.24;48.51;101737.69;5115631;27;4198;-59
2022/05/07 05:49:12;;;;;;;;;;;;;;;20.25;48.48;101733.47;5111555;27;4256;-59
2022/05/07 05:51:42;;;;;;;;;;;;;;;20.24;48.52;101743.44;5098443;27;4258;-59
2022/05/07 05:54:09;;;;;;;;;;;;;;;20.24;48.54;101726.19;5116870;27;5420;-59
2022/05/07 05:56:36;;;;;;;;;;;;;;;20.24;48.60;101737.69;5105247;27;4231;-59
2022/05/07 05:59:04;;;;;;;;;;;;;;;20.23;48.47;101736.97;5093538;27;4172;-59
2022/05/07 06:01:40;;;;;;;;;;;;;;;20.25;48.50;101744.97;5094257;27;4191;-59
2022/05/07 06:04:15;;;;;;;;;;;;;;;20.25;48.41;101739.22;5115984;27;4188;-59
2022/05/07 06:06:42;;;;;;;;;;;;;;;20.25;48.40;101739.22;5106213;27;4350;-59
2022/05/07 06:09:10;;;;;;;;;;;;;;;20.25;48.43;101748.59;5095643;27;4138;-59
2022/05/07 06:11:36;;;;;;;;;;;;;;;20.25;48.33;101745.72;5096929;27;4196;-59
2022/05/07 06:14:04;;;;;;;;;;;;;;;20.25;48.34;101742.09;5098056;27;5350;-60
2022/05/07 06:16:31;;;;;;;;;;;;;;;20.25;48.48;101739.22;5105450;27;4259;-59
2022/05/07 06:19:03;;;;;;;;;;;;;;;20.25;48.39;101750.72;5113947;27;4024;-60
2022/05/07 06:21:30;;;;;;;;;;;;;;;20.25;48.42;101744.97;5096150;27;5266;-59
2022/05/07 06:27:28;;;;;;;;;;;;;;;20.25;48.42;101739.22;5114979;27;4117;-59
2022/05/07 06:29:29;;;;;;;;;;;;;;;20.25;48.32;101744.97;5109077;27;5351;-59
2022/05/07 06:31:56;;;;;;;;;;;;;;;20.25;48.23;101742.09;5102475;27;4160;-59
2022/05/07 06:34:24;;;;;;;;;;;;;;;20.25;48.39;101742.09;5095619;27;4182;-59
2022/05/07 06:36:57;;;;;;;;;;;;;;;20.24;48.30;101741.31;5099589;28;4201;-59
2022/05/07 06:39:24;;;;;;;;;;;;;;;20.25;48.41;101739.22;5097306;27;4144;-59
2022/05/07 06:41:51;;;;;;;;;;;;;;;20.24;48.37;101737.69;5098450;28;4165;-59
2022/05/07 06:44:18;;;;;;;;;;;;;;;20.25;48.28;101733.47;5110893;27;5237;-59
2022/05/07 06:46:45;;;;;;;;;;;;;;;20.25;48.33;101745.72;5102282;27;4172;-59
2022/05/07 06:49:14;;;;;;;;;;;;;;;20.24;48.37;101738.44;5108538;27;4300;-59
2022/05/07 06:51:47;;;;;;;;;;;;;;;20.25;48.34;101744.97;5089416;27;4116;-59
2022/05/07 06:54:15;;;;;;;;;;;;;;;20.24;48.32;101744.19;5109244;27;4156;-60
2022/05/07 06:56:41;;;;;;;;;;;;;;;20.25;48.18;101739.97;5114740;27;4232;-60
2022/05/07 06:59:09;;;;;;;;;;;;;;;20.23;47.96;101741.97;5111700;27;4234;-67
2022/05/07 07:01:36;;;;;;;;;;;;;;;20.28;47.95;101737.94;5112135;27;5573;-68
2022/05/07 07:04:03;;;;;;;;;;;;;;;20.35;47.67;101731.19;5112680;27;5391;-72
2022/05/07 07:06:29;;;;;;;;;;;;;;;20.41;47.60;101730.78;5113964;27;4116;-75
2022/05/07 07:11:48;;;;;;;;;;;;;;;20.82;47.41;101736.88;5111111;27;4155;-63
2022/05/07 07:14:15;;;;;;;;;;;;;;;20.69;47.43;101728.91;5117926;27;4161;-64
2022/05/07 07:16:42;;;;;;;;;;;;;;;20.62;47.54;101730.66;5115245;27;4158;-64
2022/05/07 07:19:09;;;;;;;;;;;;;;;20.61;47.55;101732.03;5119798;27;5250;-64
2022/05/07 07:21:36;;;;;;;;;;;;;;;20.59;47.53;101734.03;5116353;27;4222;-63
2022/05/07 07:24:02;;;;;;;;;;;;;;;20.60;47.64;101732.69;5115262;27;4160;-60
2022/05/07 07:26:28;;;;;;;;;;;;;;;20.61;47.78;101734.16;5114246;27;4562;-64
2022/05/07 07:28:56;;;;;;;;;;;;;;;20.60;47.78;101738.44;5118702;27;4117;-64
2022/05/07 07:31:23;;;;;;;;;;;;;;;20.60;47.95;101747.06;5112998;27;4162;-64
2022/05/07 07:33:50;;;;;;;;;;;;;;;20.60;47.86;101744.19;5118212;27;4365;-65
2022/05/07 07:36:16;;;;;;;;;;;;;;;20.60;47.88;101744.19;5120580;27;5482;-65
2022/05/07 07:38:43;;;;;;;;;;;;;;;20.60;47.76;101744.19;5121534;27;4449;-65
2022/05/07 07:41:09;;;;;;;;;;;;;;;20.60;47.73;101739.19;5118519;27;5224;-65
2022/05/07 07:43:37;;;;;;;;;;;;;;;20.59;47.76;101740.56;5119256;27;4215;-65
2022/05/07 07:48:48;;;;;;;;;;;;;;;20.64;47.71;101750.19;5112387;27;4290;-64
2022/05/07 07:51:14;;;;;;;;;;;;;;;20.65;47.51;101745.94;5118505;27;4175;-65
2022/05/07 07:53:42;;;;;;;;;;;;;;;20.65;47.48;101746.66;5117460;27;4202;-64
2022/05/07 07:56:08;;;;;;;;;;;;;;;20.68;47.24;101750.41;5115314;27;4181;-62
2022/05/07 07:58:35;;;;;;;;;;;;;;;20.71;47.12;101749.16;5117455;27;4198;-62
2022/05/07 08:01:01;;;;;;;;;;;;;;;20.73;47.15;101749.28;5114359;27;4239;-61
2022/05/07 08:03:27;;;;;;;;;;;;;;;20.74;47.17;101753.66;5118474;27;4202;-62
2022/05/07 08:05:54;;;;;;;;;;;;;;;20.76;47.04;101756.66;5120368;27;4159;-62
2022/05/07 08:14:05;;;;;;;;;;;;;;;20.80;47.10;101753.25;5083687;27;4240;-64
2022/05/07 08:16:31;;;;;;;;;;;;;;;20.81;47.27;101752.63;5118791;27;4201;-63
2022/05/07 08:18:59;;;;;;;;;;;;;;;20.81;47.25;101758.38;5116621;27;4279;-63
2022/05/07 08:21:25;;;;;;;;;;;;;;;20.82;47.10;101745.50;5115286;27;4304;-63
2022/05/07 08:23:52;;;;;;;;;;;;;;;20.83;47.12;101749.88;5118475;27;3992;-63
2022/05/07 08:26:18;;;;;;;;;;;;;;;20.83;47.06;101754.88;5119728;27;4207;-63
2022/05/07 08:28:44;;;;;;;;;;;;;;;20.84;46.99;101745.59;5118201;27;4438;-63
2022/05/07 08:31:11;;;;;;;;;;;;;;;20.84;46.98;101745.59;5119925;27;5365;-63
2022/05/07 08:33:40;;;;;;;;;;;;;;;20.84;47.11;101745.59;5115715;27;4214;-62
2022/05/07 08:36:07;;;;;;;;;;;;;;;20.86;46.84;101747.88;5116940;27;4208;-63
2022/05/07 08:38:34;;;;;;;;;;;;;;;20.85;46.88;101741.38;5118998;27;4201;-63
2022/05/07 08:41:00;;;;;;;;;;;;;;;20.88;46.71;101750.88;5115956;27;5418;-64
2022/05/07 08:43:36;;;;;;;;;;;;;;;21.07;47.29;101744.03;5106064;27;4235;-65
2022/05/07 08:46:09;;;;;;;;;;;;;;;21.21;47.53;101741.22;5109587;27;4243;-68
2022/05/07 08:48:38;;;;;;;;;;;;;;;21.29;47.56;101748.19;5116189;27;4012;-66
2022/05/07 08:51:07;;;;;;;;;;;;;;;21.36;47.18;101745.66;5118413;27;5309;-67
2022/05/07 08:53:34;;;;;;;;;;;;;;;21.41;47.36;101753.16;5099087;27;5236;-65
2022/05/07 08:56:01;;;;;;;;;;;;;;;21.44;46.92;101737.47;5118766;27;5092;-64
2022/05/07 08:58:28;;;;;;;;;;;;;;;21.29;46.93;101742.41;5114993;27;4193;-65
2022/05/07 09:00:55;;;;;;;;;;;;;;;21.20;47.34;101740.47;5120254;27;4140;-64
2022/05/07 09:03:21;;;;;;;;;;;;;;;21.15;47.44;101744.50;5116063;27;4354;-65
2022/05/07 09:05:48;;;;;;;;;;;;;;;21.10;47.82;101743.53;5116501;27;4233;-63
2022/05/07 09:08:14;;;;;;;;;;;;;;;21.07;47.84;101744.78;5106671;27;4276;-63
2022/05/07 09:10:40;;;;;;;;;;;;;;;21.06;47.94;101748.31;5110605;27;4240;-64
2022/05/07 09:13:10;;;;;;;;;;;;;;;21.04;47.80;101745.31;5115537;27;5258;-64
2022/05/07 09:15:37;;;;;;;;;;;;;;;21.03;47.73;101756.06;5117560;27;5324;-64
2022/05/07 09:18:13;;;;;;;;;;;;;;;21.03;47.79;101749.56;5100199;27;3947;-68
2022/05/07 09:20:40;;;;;;;;;;;;;;;21.02;47.61;101748.06;5117386;27;4138;-64
2022/05/07 09:23:06;;;;;;;;;;;;;;;21.01;47.60;101749.44;5119419;27;5238;-65
2022/05/07 09:25:32;;;;;;;;;;;;;;;20.99;47.53;101741.44;5104828;27;4175;-64
2022/05/07 09:27:59;;;;;;;;;;;;;;;20.99;47.41;101738.56;5118286;27;4107;-64
2022/05/07 09:30:26;;;;;;;;;;;;;;;20.99;47.38;101747.19;5114327;27;5135;-64
2022/05/07 09:32:52;;;;;;;;;;;;;;;20.98;47.29;101747.81;5116697;27;4207;-63
2022/05/07 09:38:05;;;;;;;;;;;;;;;20.99;47.22;101740.69;5114798;27;5306;-65
2022/05/07 09:40:32;;;;;;;;;;;;;;;20.98;47.09;101745.72;5118296;27;4066;-64
2022/05/07 09:42:58;;;;;;;;;;;;;;;20.97;46.90;101729.06;5118446;27;4236;-64
2022/05/07 09:45:25;;;;;;;;;;;;;;;20.97;46.81;101734.81;5114856;27;4178;-64
2022/05/07 09:47:52;;;;;;;;;;;;;;;20.96;47.00;101739.81;5117731;27;4257;-64
2022/05/07 09:50:52;;;;;;;;;;;;;;;20.95;46.74;101735.44;5115452;27;4372;-65
2022/05/07 09:58:46;;;;;;;;;;;;;;;20.93;46.79;101736.06;5116015;27;5049;-64
2022/05/07 10:01:27;;;;;;;;;;;;;;;20.93;46.71;101730.31;5117302;27;4211;-64
2022/05/07 10:04:04;;;;;;;;;;;;;;;20.92;46.65;101728.81;5118812;27;5231;-64
2022/05/07 10:06:36;;;;;;;;;;;;;;;20.92;46.64;101731.69;5117735;27;4177;-65
2022/05/07 10:09:03;;;;;;;;;;;;;;;20.92;46.74;101728.06;5103150;27;4284;-64
2022/05/07 10:11:29;;;;;;;;;;;;;;;20.91;46.69;101724.44;5116915;27;5232;-65
2022/05/07 10:13:55;;;;;;;;;;;;;;;20.92;46.74;101717.28;5116426;27;5263;-64
2022/05/07 10:16:23;;;;;;;;;;;;;;;20.91;46.59;101721.56;5116678;27;5315;-64
2022/05/07 10:18:50;;;;;;;;;;;;;;;20.91;46.80;101718.69;5118838;27;4149;-64
2022/05/07 10:21:17;;;;;;;;;;;;;;;20.90;46.69;101714.28;5115132;27;5321;-64
2022/05/07 10:24:09;;;;;;;;;;;;;;;20.90;46.58;101722.94;5114400;27;4196;-64
2022/05/07 10:26:39;;;;;;;;;;;;;;;20.90;46.77;101717.19;5113724;27;4137;-64
2022/05/07 10:29:07;;;;;;;;;;;;;;;20.90;46.80;101714.28;5111561;27;4434;-63
2022/05/07 10:31:43;;;;;;;;;;;;;;;20.90;46.74;101717.19;5106307;27;4389;-64
2022/05/07 10:34:09;;;;;;;;;;;;;;;20.91;46.71;101712.94;5114673;27;5486;-64
2022/05/07 10:36:35;;;;;;;;;;;;;;;20.92;46.71;101717.28;5117522;27;4211;-65
2022/05/07 10:39:08;;;;;;;;;;;;;;;20.96;46.53;101710.25;5116692;27;4257;-64
2022/05/07 10:41:46;;;;;;;;;;;;;;;20.96;46.69;101704.50;5113496;27;5266;-62
2022/05/07 10:44:12;;;;;;;;;;;;;;;20.96;46.61;101704.50;5114840;27;5237;-62
2022/05/07 10:46:39;;;;;;;;;;;;;;;20.95;46.67;101708.78;5105549;27;4037;-63
2022/05/07 10:49:06;;;;;;;;;;;;;;;20.92;46.66;101711.53;5114037;27;4213;-62
2022/05/07 10:51:33;;;;;;;;;;;;;;;20.93;46.67;101718.03;5114776;27;4317;-62
2022/05/07 10:54:00;;;;;;;;;;;;;;;20.92;46.67;101717.28;5115398;27;4165;-62
2022/05/07 10:56:28;;;;;;;;;;;;;;;20.91;46.63;101707.19;5115580;27;5388;-62
2022/05/07 10:58:55;;;;;;;;;;;;;;;20.92;46.92;101710.78;5111858;27;4069;-62
2022/05/07 11:01:22;;;;;;;;;;;;;;;20.92;46.68;101716.56;5114191;28;4208;-62
2022/05/07 11:03:59;;;;;;;;;;;;;;;20.91;46.73;101712.94;5117200;28;5337;-62
2022/05/07 11:06:26;;;;;;;;;;;;;;;20.90;46.71;101711.41;5112757;27;4143;-62
2022/05/07 11:08:53;;;;;;;;;;;;;;;20.91;46.65;101710.06;5101484;28;5299;-62
2022/05/07 11:11:19;;;;;;;;;;;;;;;20.92;46.66;101705.03;5116100;28;5460;-62
2022/05/07 11:13:52;;;;;;;;;;;;;;;20.92;46.67;101694.25;5113415;28;4204;-63
2022/05/07 11:16:18;;;;;;;;;;;;;;;20.93;46.65;101697.88;5115223;28;5497;-61
2022/05/07 11:19:00;;;;;;;;;;;;;;;20.92;46.84;101700.03;5116200;28;4180;-61
2022/05/07 11:21:33;;;;;;;;;;;;;;;20.93;46.62;101701.50;5113291;28;5229;-62
2022/05/07 11:24:01;;;;;;;;;;;;;;;20.94;46.69;101702.28;5103780;28;4174;-61
2022/05/07 11:26:27;;;;;;;;;;;;;;;20.93;46.79;101695.75;5117417;28;5286;-62
2022/05/07 11:28:54;;;;;;;;;;;;;;;20.93;46.81;101695.75;5112690;27;5292;-61
2022/05/07 11:31:30;;;;;;;;;;;;;;;20.95;46.74;101697.25;5112834;28;5637;-62
2022/05/07 11:34:03;;;;;;;;;;;;;;;20.94;46.91;101702.28;5116840;28;4253;-62
2022/05/07 11:36:29;;;;;;;;;;;;;;;20.93;46.72;101695.75;5114809;28;4321;-62
2022/05/07 11:38:56;;;;;;;;;;;;;;;20.95;46.73;101697.25;5117017;28;4167;-62
2022/05/07 11:41:22;;;;;;;;;;;;;;;20.95;46.86;101697.25;5117008;28;4333;-62
2022/05/07 11:46:55;;;;;;;;;;;;;;;20.96;46.74;101690.09;5115267;27;5270;-62
2022/05/07 11:49:33;;;;;;;;;;;;;;;20.96;46.92;101687.22;5115133;27;4195;-61
2022/05/07 11:52:18;;;;;;;;;;;;;;;20.96;46.80;101688.00;5116141;28;4113;-63
2022/05/07 11:54:50;;;;;;;;;;;;;;;20.97;46.73;101677.97;5098497;27;4191;-63
2022/05/07 11:57:27;;;;;;;;;;;;;;;20.97;46.80;101691.63;5118523;27;4240;-63
2022/05/07 11:59:53;;;;;;;;;;;;;;;20.97;47.04;101680.09;5121328;27;5565;-65
2022/05/07 12:02:19;;;;;;;;;;;;;;;21.00;47.14;101679.56;5119859;27;5237;-62
2022/05/07 12:04:46;;;;;;;;;;;;;;;20.99;47.38;101668.72;5104155;27;4174;-62
2022/05/07 12:07:12;;;;;;;;;;;;;;;20.99;47.52;101674.47;5106860;27;4289;-62
2022/05/07 12:09:38;;;;;;;;;;;;;;;20.99;47.32;101668.72;5119988;27;4266;-62
2022/05/07 12:12:06;;;;;;;;;;;;;;;20.99;47.36;101672.31;5118386;27;4185;-62
2022/05/07 12:14:32;;;;;;;;;;;;;;;20.99;47.25;101662.94;5117947;27;4333;-62
2022/05/07 12:19:47;;;;;;;;;;;;;;;20.98;47.21;101650.69;5118358;27;4409;-62
2022/05/07 12:30:29;;;;;;;;;;;;;;;20.99;47.11;101663.69;5111103;27;5304;-62
2022/05/07 12:32:59;;;;;;;;;;;;;;;21.00;47.16;101664.44;5115168;27;4183;-62
2022/05/07 12:35:25;;;;;;;;;;;;;;;21.00;47.09;101661.56;5117197;27;4159;-62
2022/05/07 12:37:51;;;;;;;;;;;;;;;20.99;47.23;101669.44;5118246;27;5249;-62
2022/05/07 12:40:18;;;;;;;;;;;;;;;21.00;47.06;101661.56;5118572;27;4248;-62
2022/05/07 12:42:45;;;;;;;;;;;;;;;21.01;47.15;101660.19;5116005;27;4185;-62
2022/05/07 12:45:11;;;;;;;;;;;;;;;21.00;47.16;101652.91;5116219;27;5251;-62
2022/05/07 12:47:38;;;;;;;;;;;;;;;20.99;47.23;101663.69;5118413;27;4217;-61
2022/05/07 12:50:05;;;;;;;;;;;;;;;21.01;47.33;101660.19;5115972;27;4241;-62
2022/05/07 12:52:32;;;;;;;;;;;;;;;21.01;47.12;101654.44;5118919;27;4138;-62
2022/05/07 12:54:58;;;;;;;;;;;;;;;21.01;47.15;101657.31;5118951;27;4194;-61
2022/05/07 12:57:28;;;;;;;;;;;;;;;21.01;47.26;101657.31;5113651;27;5264;-62
2022/05/07 12:59:55;;;;;;;;;;;;;;;21.01;47.30;101654.44;5117893;27;4311;-62
2022/05/07 13:02:23;;;;;;;;;;;;;;;21.03;47.23;101640.16;5118422;27;5256;-62
2022/05/07 13:04:49;;;;;;;;;;;;;;;21.02;47.36;101638.63;5119561;27;5451;-61
2022/05/07 13:07:16;;;;;;;;;;;;;;;21.03;47.26;101640.88;5119397;27;4189;-62
2022/05/07 13:09:42;;;;;;;;;;;;;;;21.03;47.31;101645.91;5117887;27;4159;-61
2022/05/07 13:12:18;;;;;;;;;;;;;;;21.03;47.38;101634.38;5116912;27;4198;-62
2022/05/07 13:14:52;;;;;;;;;;;;;;;21.04;47.48;101644.50;5119432;27;5361;-62
2022/05/07 13:17:18;;;;;;;;;;;;;;;21.03;47.33;101638.00;5103181;27;4198;-62
2022/05/07 13:19:45;;;;;;;;;;;;;;;21.04;47.56;101630.84;5117223;27;4214;-62
2022/05/07 13:22:11;;;;;;;;;;;;;;;21.06;47.34;101636.00;5116919;27;4194;-62
2022/05/07 13:24:37;;;;;;;;;;;;;;;21.04;47.54;101630.09;5113142;27;4165;-61
2022/05/07 13:27:04;;;;;;;;;;;;;;;21.05;47.50;101631.59;5117907;27;4227;-62
2022/05/07 13:29:33;;;;;;;;;;;;;;;21.05;47.42;101626.59;5109740;27;3966;-61
2022/05/07 13:32:00;;;;;;;;;;;;;;;21.07;47.53;101637.47;5093345;27;4069;-62
2022/05/07 13:34:27;;;;;;;;;;;;;;;21.06;47.53;101633.84;5096971;27;4217;-62
2022/05/07 13:36:54;;;;;;;;;;;;;;;21.07;47.36;101628.84;5116900;27;4249;-62
2022/05/07 13:39:33;;;;;;;;;;;;;;;21.07;47.42;101626.72;5098353;27;4241;-62
2022/05/07 13:42:14;;;;;;;;;;;;;;;21.08;47.32;101624.59;5080493;27;4190;-62